Mar del Tuyu, Argentina
Current Conditions -  °F | °C
As of 2:00 PM on Saturday 20 Dec 2014 (Local Time) from SAZM Reporting Station
Overcast Overcast  
Wind Chill: 66°   Ceiling: 20000
Heat Index: 66°   Visibility: 5mi
Dew Point: 54°   Wind: 21mph
Humidity: 64%   Direction: 180°S
Pressure: 29.65"   Gusts: NA
Location:  36.55°S, 56.68°W
Report Text: SAZM 201700Z 18018KT 8000 SCT020 SCT100OVC200 19/12 Q1004
Loading
Personal Weather Stations






























Interactive Weather Map New forecast layout! Learn more

10-Day Weather Forecast

Advertisements
Track Severe Weather on mobile